Higman Legacy — WDH5331 — position and weather

sailwx.info

Track history (hours):
 
Tides and Currents Weather Stations Pressure Air Temp Water Temp Dewpoint Dewpoint Depression Visibility Wind Speed Wind Dir Waves Ship Positions

Higman Legacy

Owner: Higman Barge Lines, Inc., Orange, TX. More information available from US FCC via Universal Licensing System and Coast Guard Vessel Documentation Center.

Last reported at 2017-Nov-16 19:35 UTC. Time now 2017-Dec-16 16:31 UTC.
Position N 32°40' W 091°07'.
Warning: this ship's position is 29 days out of date.

Length 37 m; draft 3.2 m.

Type: Fishing. MMSI: 367626880.

Date/timePositionNaut miles runAvg speedWind from/ knotsBaromVisibWave heightAir tempDewpointWater temp
2017-Nov-16 19:35N 32°40' W 091°07'1 6.4
2017-Nov-16 19:30N 32°40' W 091°08'3 5.3
2017-Nov-16 19:00N 32°38' W 091°09'3 5.9
2017-Nov-16 18:30N 32°35' W 091°07'3 5.8
2017-Nov-16 18:01N 32°32' W 091°06'3 6.7
2017-Nov-16 17:30N 32°29' W 091°07'3 6.4
2017-Nov-16 17:00N 32°27' W 091°04'3 6.4
2017-Nov-16 16:30N 32°26' W 091°01'3 5.1
2017-Nov-16 16:00N 32°23' W 090°60'2 4.8
2017-Nov-16 15:30N 32°21' W 090°59'3 6.6
2017-Nov-16 15:01N 32°21' W 090°55'2 4.5
2017-Nov-16 14:28N 32°18' W 090°55'0 0.6
2017-Nov-16 13:59N 32°18' W 090°55'3 5.8
2017-Nov-16 13:30N 32°16' W 090°58'3 6.1
2017-Nov-16 13:00N 32°13' W 090°59'3 6.2
2017-Nov-16 12:30N 32°10' W 090°60'3 5.9
2017-Nov-16 12:00N 32°07' W 091°01'3 5.3
2017-Nov-16 11:26N 32°08' W 091°04'2 4.5
2017-Nov-16 11:00N 32°07' W 091°06'3 5.3
2017-Nov-16 10:27N 32°05' W 091°04'2 5.6
2017-Nov-16 10:00N 32°02' W 091°04'4 6.6
2017-Nov-16 09:28N 31°59' W 091°06'3 6.3
2017-Nov-16 08:58N 31°59' W 091°10'14 5.6
2017-Nov-16 06:33N 31°49' W 091°21'  
2017-Nov-10 17:59N 31°60' W 091°05'6 7.3
2017-Nov-10 17:06N 32°06' W 091°06'1 8.7
2017-Nov-10 17:00N 32°07' W 091°07'4 7.0
2017-Nov-10 16:29N 32°07' W 091°02'4 7.9
2017-Nov-10 16:00N 32°10' W 091°00'4 9.0
2017-Nov-10 15:30N 32°15' W 090°59'4 8.2
2017-Nov-10 15:00N 32°18' W 090°55'3 5.9
2017-Nov-10 14:30N 32°21' W 090°55'4 8.1
2017-Nov-10 14:00N 32°22' W 091°00'4 7.8
2017-Nov-10 13:30N 32°25' W 091°01'4 8.7
2017-Nov-10 13:00N 32°27' W 091°06'4 8.0
2017-Nov-10 12:30N 32°31' W 091°06'4 8.3
2017-Nov-10 12:00N 32°35' W 091°08'4 8.6
2017-Nov-10 11:30N 32°39' W 091°09'5 4.0
2017-Nov-10 10:08N 32°45' W 091°09'  
Track history (hours):
 
Tides and Currents Weather Stations Pressure Air Temp Water Temp Dewpoint Dewpoint Depression Visibility Wind Speed Wind Dir Waves Ship Positions

Higman Legacy

Owner: Higman Barge Lines, Inc., Orange, TX. More information available from US FCC via Universal Licensing System and Coast Guard Vessel Documentation Center.

Last reported at 2017-Nov-16 19:35 UTC. Time now 2017-Dec-16 16:31 UTC.
Position N 32°40' W 091°07'.
Warning: this ship's position is 29 days out of date.

Length 37 m; draft 3.2 m.

Type: Fishing. MMSI: 367626880.

Date/timePositionNaut miles runAvg speedWind from/ knotsBaromVisibWave heightAir tempDewpointWater temp
2017-Nov-16 19:35N 32°40' W 091°07'1 6.4
2017-Nov-16 19:30N 32°40' W 091°08'3 5.3
2017-Nov-16 19:00N 32°38' W 091°09'3 5.9
2017-Nov-16 18:30N 32°35' W 091°07'3 5.8
2017-Nov-16 18:01N 32°32' W 091°06'3 6.7
2017-Nov-16 17:30N 32°29' W 091°07'3 6.4
2017-Nov-16 17:00N 32°27' W 091°04'3 6.4
2017-Nov-16 16:30N 32°26' W 091°01'3 5.1
2017-Nov-16 16:00N 32°23' W 090°60'2 4.8
2017-Nov-16 15:30N 32°21' W 090°59'3 6.6
2017-Nov-16 15:01N 32°21' W 090°55'2 4.5
2017-Nov-16 14:28N 32°18' W 090°55'0 0.6
2017-Nov-16 13:59N 32°18' W 090°55'3 5.8
2017-Nov-16 13:30N 32°16' W 090°58'3 6.1
2017-Nov-16 13:00N 32°13' W 090°59'3 6.2
2017-Nov-16 12:30N 32°10' W 090°60'3 5.9
2017-Nov-16 12:00N 32°07' W 091°01'3 5.3
2017-Nov-16 11:26N 32°08' W 091°04'2 4.5
2017-Nov-16 11:00N 32°07' W 091°06'3 5.3
2017-Nov-16 10:27N 32°05' W 091°04'2 5.6
2017-Nov-16 10:00N 32°02' W 091°04'4 6.6
2017-Nov-16 09:28N 31°59' W 091°06'3 6.3
2017-Nov-16 08:58N 31°59' W 091°10'14 5.6
2017-Nov-16 06:33N 31°49' W 091°21'  
2017-Nov-10 17:59N 31°60' W 091°05'6 7.3
2017-Nov-10 17:06N 32°06' W 091°06'1 8.7
2017-Nov-10 17:00N 32°07' W 091°07'4 7.0
2017-Nov-10 16:29N 32°07' W 091°02'4 7.9
2017-Nov-10 16:00N 32°10' W 091°00'4 9.0
2017-Nov-10 15:30N 32°15' W 090°59'4 8.2
2017-Nov-10 15:00N 32°18' W 090°55'3 5.9
2017-Nov-10 14:30N 32°21' W 090°55'4 8.1
2017-Nov-10 14:00N 32°22' W 091°00'4 7.8
2017-Nov-10 13:30N 32°25' W 091°01'4 8.7
2017-Nov-10 13:00N 32°27' W 091°06'4 8.0
2017-Nov-10 12:30N 32°31' W 091°06'4 8.3
2017-Nov-10 12:00N 32°35' W 091°08'4 8.6
2017-Nov-10 11:30N 32°39' W 091°09'5 4.0
2017-Nov-10 10:08N 32°45' W 091°09'  

Dump ship's entire track history